createdAt,value
2022-12-08T00:01:46.822Z,6.39
2022-12-08T00:04:13.915Z,6.37
2022-12-08T00:07:01.288Z,6.37
2022-12-08T00:09:37.856Z,6.39
2022-12-08T00:12:07.944Z,6.37
2022-12-08T00:14:36.679Z,6.39
2022-12-08T00:17:05.005Z,6.37
2022-12-08T00:19:32.553Z,6.37
2022-12-08T00:22:00.133Z,6.39
2022-12-08T00:24:33.323Z,6.40
2022-12-08T00:27:00.360Z,6.45
2022-12-08T00:29:27.671Z,6.48
2022-12-08T00:31:54.876Z,6.49
2022-12-08T00:34:21.936Z,6.50
2022-12-08T00:36:49.061Z,6.55
2022-12-08T00:39:17.133Z,6.58
2022-12-08T00:42:04.033Z,6.61
2022-12-08T00:44:31.053Z,6.62
2022-12-08T00:46:58.022Z,6.57
2022-12-08T00:49:25.084Z,6.50
2022-12-08T00:51:52.178Z,6.43
2022-12-08T00:54:19.213Z,6.39
2022-12-08T00:56:47.640Z,6.33
2022-12-08T00:59:15.005Z,6.29
2022-12-08T01:01:44.804Z,6.25
2022-12-08T01:04:15.565Z,6.27
2022-12-08T01:06:43.567Z,6.27
2022-12-08T01:09:12.864Z,6.26
2022-12-08T01:11:39.791Z,6.28
2022-12-08T01:14:08.336Z,6.30
2022-12-08T01:16:36.465Z,6.32
2022-12-08T01:19:04.298Z,6.33
2022-12-08T01:21:31.272Z,6.36
2022-12-08T01:24:00.042Z,6.36
2022-12-08T01:26:27.305Z,6.34
2022-12-08T01:28:54.717Z,6.38
2022-12-08T01:31:23.634Z,6.41
2022-12-08T01:33:51.106Z,6.44
2022-12-08T01:36:21.508Z,6.45
2022-12-08T01:38:48.588Z,6.43
2022-12-08T01:41:16.553Z,6.46
2022-12-08T01:43:54.417Z,6.49
2022-12-08T01:46:23.526Z,6.44
2022-12-08T01:48:54.529Z,6.41
2022-12-08T01:51:21.760Z,6.38
2022-12-08T01:53:49.615Z,6.35
2022-12-08T01:56:20.773Z,6.31
2022-12-08T01:58:51.075Z,6.31
2022-12-08T02:01:18.530Z,6.32
2022-12-08T02:03:51.798Z,6.27
2022-12-08T02:06:20.068Z,6.27
2022-12-08T02:08:48.923Z,6.28
2022-12-08T02:11:15.984Z,6.31
2022-12-08T02:13:45.609Z,6.32
2022-12-08T02:16:23.292Z,6.40
2022-12-08T02:19:29.612Z,6.48
2022-12-08T02:21:56.981Z,6.48
2022-12-08T02:24:33.939Z,6.55
2022-12-08T02:27:23.051Z,6.58
2022-12-08T02:30:19.985Z,6.63
2022-12-08T02:33:22.383Z,6.69
2022-12-08T02:35:57.902Z,6.75
2022-12-08T02:38:45.898Z,6.81
2022-12-08T02:41:23.938Z,6.85
2022-12-08T02:43:57.342Z,6.87
2022-12-08T02:46:30.068Z,6.89
2022-12-08T02:48:58.058Z,6.92
2022-12-08T02:51:26.389Z,6.95
2022-12-08T02:53:53.690Z,6.98
2022-12-08T02:56:45.773Z,7.03
2022-12-08T02:59:25.790Z,7.05
2022-12-08T03:02:05.852Z,7.06
2022-12-08T03:04:42.101Z,7.08
2022-12-08T03:07:15.105Z,7.09
2022-12-08T03:09:47.386Z,7.11
2022-12-08T03:12:19.134Z,7.11
2022-12-08T03:14:50.374Z,7.11
2022-12-08T03:17:20.395Z,7.10
2022-12-08T03:19:49.189Z,7.12
2022-12-08T03:22:22.291Z,7.10
2022-12-08T03:24:49.951Z,7.02
2022-12-08T03:27:20.116Z,6.97
2022-12-08T03:29:49.358Z,6.95
2022-12-08T03:32:23.201Z,6.90
2022-12-08T03:34:51.769Z,6.87
2022-12-08T03:37:20.880Z,6.89
2022-12-08T03:39:48.239Z,6.89
2022-12-08T03:42:15.385Z,6.92
2022-12-08T03:44:42.334Z,6.96
2022-12-08T03:47:09.291Z,7.00
2022-12-08T03:49:36.445Z,7.03
2022-12-08T03:52:03.614Z,7.01
2022-12-08T03:54:31.991Z,6.97
2022-12-08T03:56:59.147Z,6.99
2022-12-08T03:59:26.343Z,7.02
2022-12-08T04:01:53.375Z,7.04
2022-12-08T04:04:20.787Z,7.08
2022-12-08T04:06:47.789Z,7.11
2022-12-08T04:09:14.796Z,7.14
2022-12-08T04:11:43.179Z,7.14
2022-12-08T04:14:10.177Z,7.17
2022-12-08T04:16:37.291Z,7.17
2022-12-08T04:19:04.292Z,7.18
2022-12-08T04:21:31.665Z,7.19
2022-12-08T04:24:01.224Z,7.20
2022-12-08T04:26:28.648Z,7.18
2022-12-08T04:28:57.105Z,7.16
2022-12-08T04:31:24.084Z,7.17
2022-12-08T04:33:51.264Z,7.15
2022-12-08T04:36:18.304Z,7.08
2022-12-08T04:38:45.287Z,6.99
2022-12-08T04:41:12.307Z,6.92
2022-12-08T04:43:39.456Z,6.93
2022-12-08T04:46:08.809Z,6.93
2022-12-08T04:48:37.886Z,6.94
2022-12-08T04:51:05.298Z,6.98
2022-12-08T04:53:32.549Z,7.01
2022-12-08T04:55:59.495Z,7.01
2022-12-08T04:58:26.467Z,7.02
2022-12-08T05:00:53.542Z,7.03
2022-12-08T05:03:28.327Z,7.05
2022-12-08T05:05:55.777Z,7.03
2022-12-08T05:08:22.878Z,7.04
2022-12-08T05:10:49.848Z,7.05
2022-12-08T05:13:17.191Z,7.05
2022-12-08T05:15:44.384Z,7.07
2022-12-08T05:18:11.376Z,7.07
2022-12-08T05:20:39.823Z,7.08
2022-12-08T05:23:06.782Z,7.08
2022-12-08T05:25:33.746Z,7.10
2022-12-08T05:28:24.814Z,7.12
2022-12-08T05:30:47.625Z,7.13
2022-12-08T05:33:15.007Z,7.14
2022-12-08T05:35:43.667Z,7.16
2022-12-08T05:38:10.948Z,7.16
2022-12-08T05:40:38.268Z,7.04
2022-12-08T05:43:05.469Z,6.99
2022-12-08T05:45:32.675Z,6.97
2022-12-08T05:47:59.905Z,6.93
2022-12-08T05:50:26.820Z,6.97
2022-12-08T05:52:56.829Z,7.00
2022-12-08T05:55:23.881Z,6.95
2022-12-08T05:57:50.841Z,6.95
2022-12-08T06:00:18.784Z,6.93
2022-12-08T06:02:45.912Z,6.92
2022-12-08T06:05:13.009Z,6.91
2022-12-08T06:07:40.227Z,6.91
2022-12-08T06:10:10.270Z,6.90
2022-12-08T06:12:37.308Z,6.81
2022-12-08T06:15:04.972Z,6.77
2022-12-08T06:17:32.449Z,6.71
2022-12-08T06:19:59.444Z,6.67
2022-12-08T06:22:26.613Z,6.68
2022-12-08T06:24:53.639Z,6.68
2022-12-08T06:27:22.171Z,6.68
2022-12-08T06:29:49.074Z,6.71
2022-12-08T06:32:16.113Z,6.74
2022-12-08T06:34:43.134Z,6.80
2022-12-08T06:37:10.381Z,6.85
2022-12-08T06:39:37.434Z,6.93
2022-12-08T06:42:23.727Z,6.99
2022-12-08T06:44:52.387Z,6.98
2022-12-08T06:47:25.954Z,6.98
2022-12-08T06:49:53.328Z,7.00
2022-12-08T06:52:20.278Z,7.03
2022-12-08T06:54:47.261Z,7.07
2022-12-08T06:57:14.292Z,7.09
2022-12-08T06:59:41.468Z,7.05
2022-12-08T07:02:10.486Z,7.06
2022-12-08T07:04:37.574Z,7.10
2022-12-08T07:07:04.571Z,7.10
2022-12-08T07:09:31.542Z,7.09
2022-12-08T07:11:58.513Z,7.04
2022-12-08T07:14:25.673Z,6.97
2022-12-08T07:16:53.150Z,6.94
2022-12-08T07:19:21.902Z,7.03
2022-12-08T07:21:49.825Z,7.18
2022-12-08T07:24:16.787Z,7.12
2022-12-08T07:26:43.781Z,7.14
2022-12-08T07:29:11.015Z,7.11
2022-12-08T07:31:38.086Z,7.09
2022-12-08T07:34:05.079Z,7.13
2022-12-08T07:36:33.656Z,7.14
2022-12-08T07:39:00.656Z,7.17
2022-12-08T07:41:27.753Z,7.22
2022-12-08T07:43:56.026Z,7.25
2022-12-08T07:46:24.999Z,7.26
2022-12-08T07:48:52.637Z,7.23
2022-12-08T07:51:19.656Z,7.25
2022-12-08T07:53:53.704Z,7.31
2022-12-08T07:56:22.849Z,7.38
2022-12-08T07:58:50.035Z,7.42
2022-12-08T08:01:22.652Z,7.49
2022-12-08T08:03:50.048Z,7.55
2022-12-08T08:06:17.098Z,7.62
2022-12-08T08:08:44.037Z,7.60
2022-12-08T08:11:20.786Z,7.55
2022-12-08T08:13:48.820Z,7.51
2022-12-08T08:16:15.977Z,7.45
2022-12-08T08:18:43.615Z,7.39
2022-12-08T08:23:57.556Z,7.48
2022-12-08T08:26:25.997Z,7.56
2022-12-08T08:28:52.933Z,7.66
2022-12-08T08:31:24.871Z,7.72
2022-12-08T08:33:51.955Z,7.74
2022-12-08T08:36:19.179Z,7.77
2022-12-08T08:38:46.217Z,7.75
2022-12-08T08:41:13.181Z,7.76
2022-12-08T08:43:41.730Z,7.67
2022-12-08T08:46:10.110Z,7.62
2022-12-08T08:48:38.280Z,7.58
2022-12-08T08:51:10.141Z,7.56
2022-12-08T08:53:37.833Z,7.60
2022-12-08T08:56:10.500Z,7.69
2022-12-08T08:58:37.448Z,7.74
2022-12-08T09:01:06.126Z,7.74
2022-12-08T09:03:33.453Z,7.73
2022-12-08T09:06:00.672Z,7.65
2022-12-08T09:08:27.880Z,7.66
2022-12-08T09:10:55.086Z,7.60
2022-12-08T09:13:22.462Z,7.59
2022-12-08T09:15:49.525Z,7.66
2022-12-08T09:18:18.041Z,7.81
2022-12-08T09:20:44.998Z,7.96
2022-12-08T09:23:12.339Z,8.01
2022-12-08T09:25:39.311Z,8.12
2022-12-08T09:28:06.225Z,8.19
2022-12-08T09:30:33.149Z,8.20
2022-12-08T09:33:00.075Z,8.24
2022-12-08T09:35:28.405Z,8.34
2022-12-08T09:37:55.444Z,8.41
2022-12-08T09:40:25.224Z,8.32
2022-12-08T09:42:58.648Z,8.27
2022-12-08T09:45:29.065Z,8.36
2022-12-08T09:48:04.401Z,8.42
2022-12-08T09:50:34.043Z,8.36
2022-12-08T09:53:06.315Z,8.33
2022-12-08T09:55:41.360Z,8.39
2022-12-08T09:58:17.732Z,8.46
2022-12-08T10:00:44.905Z,8.52
2022-12-08T10:03:16.558Z,8.55
2022-12-08T10:05:55.368Z,8.56
2022-12-08T10:08:31.238Z,8.52
2022-12-08T10:11:03.197Z,8.57
2022-12-08T10:13:38.384Z,8.66
2022-12-08T10:16:22.031Z,8.75
2022-12-08T10:18:57.809Z,8.82
2022-12-08T10:21:30.313Z,8.86
2022-12-08T10:24:02.035Z,8.91
2022-12-08T10:26:35.482Z,8.97
2022-12-08T10:29:03.177Z,8.99
2022-12-08T10:31:32.070Z,9.02
2022-12-08T10:34:00.677Z,9.06
2022-12-08T10:36:50.985Z,9.07
2022-12-08T10:39:36.429Z,9.09
2022-12-08T10:42:09.120Z,9.11
2022-12-08T10:44:53.016Z,9.14
2022-12-08T10:47:22.349Z,9.16
2022-12-08T10:50:08.283Z,9.19
2022-12-08T10:52:41.002Z,9.20
2022-12-08T10:55:15.058Z,9.22
2022-12-08T10:57:42.321Z,9.25
2022-12-08T11:00:14.572Z,9.31
2022-12-08T11:02:57.495Z,9.39
2022-12-08T11:05:31.069Z,9.40
2022-12-08T11:08:00.259Z,9.41
2022-12-08T11:10:37.585Z,9.30
2022-12-08T11:13:07.068Z,9.12
2022-12-08T11:15:37.917Z,9.04
2022-12-08T11:18:22.778Z,9.09
2022-12-08T11:20:58.434Z,9.06
2022-12-08T11:23:29.192Z,9.05
2022-12-08T11:26:01.530Z,9.04
2022-12-08T11:28:28.941Z,8.92
2022-12-08T11:31:00.440Z,8.80
2022-12-08T11:33:28.502Z,8.72
2022-12-08T11:36:00.631Z,8.70
2022-12-08T11:38:31.334Z,8.66
2022-12-08T11:41:03.466Z,8.67
2022-12-08T11:43:42.450Z,8.61
2022-12-08T11:46:13.477Z,8.70
2022-12-08T11:48:46.310Z,8.81
2022-12-08T11:51:17.345Z,8.85
2022-12-08T11:53:54.479Z,8.74
2022-12-08T11:56:25.518Z,8.72
2022-12-08T11:58:56.797Z,8.78
2022-12-08T12:01:25.903Z,8.83
2022-12-08T12:04:00.622Z,8.88
2022-12-08T12:06:54.791Z,8.95
2022-12-08T12:09:34.203Z,9.01
2022-12-08T12:12:14.354Z,9.02
2022-12-08T12:14:53.045Z,9.04
2022-12-08T12:17:31.306Z,9.12
2022-12-08T12:20:03.011Z,9.12
2022-12-08T12:22:34.485Z,9.06
2022-12-08T12:25:03.956Z,8.99
2022-12-08T12:27:38.290Z,8.93
2022-12-08T12:30:09.758Z,8.95
2022-12-08T12:32:44.411Z,8.91
2022-12-08T12:35:22.662Z,8.81
2022-12-08T12:37:57.527Z,8.73
2022-12-08T12:40:28.822Z,8.72
2022-12-08T12:43:27.680Z,8.76
2022-12-08T12:46:41.746Z,8.74
2022-12-08T12:49:48.692Z,8.62
2022-12-08T12:52:41.663Z,8.55
2022-12-08T12:55:53.588Z,8.49
2022-12-08T12:58:47.333Z,8.46
2022-12-08T13:01:50.057Z,8.51
2022-12-08T13:04:17.752Z,8.54
2022-12-08T13:06:47.811Z,8.52
2022-12-08T13:09:23.357Z,8.49
2022-12-08T13:11:53.317Z,8.48
2022-12-08T13:14:34.141Z,8.41
2022-12-08T13:17:04.540Z,8.41
2022-12-08T13:19:33.133Z,8.49
2022-12-08T13:22:00.986Z,8.56
2022-12-08T13:24:34.514Z,8.55
2022-12-08T13:27:33.999Z,8.52
2022-12-08T13:30:38.242Z,8.41
2022-12-08T13:33:19.664Z,8.39
2022-12-08T13:36:00.370Z,8.45
2022-12-08T13:38:31.206Z,8.48
2022-12-08T13:41:02.062Z,8.51
2022-12-08T13:43:51.017Z,8.50
2022-12-08T13:58:01.712Z,8.67
2022-12-08T14:00:28.710Z,8.62
2022-12-08T14:02:58.376Z,8.61
2022-12-08T14:06:10.496Z,8.61
2022-12-08T14:08:58.993Z,8.62
2022-12-08T14:11:33.510Z,8.65
2022-12-08T14:14:03.466Z,8.62
2022-12-08T14:16:36.261Z,8.59
2022-12-08T14:19:15.090Z,8.57
2022-12-08T14:21:47.140Z,8.59
2022-12-08T14:24:14.439Z,8.58
2022-12-08T14:26:41.476Z,8.58
2022-12-08T14:29:09.990Z,8.61
2022-12-08T14:31:37.127Z,8.62
2022-12-08T14:34:04.286Z,8.58
2022-12-08T14:36:33.362Z,8.56
2022-12-08T14:39:01.876Z,8.56
2022-12-08T14:41:32.854Z,8.56
2022-12-08T14:44:01.712Z,8.61
2022-12-08T14:46:28.997Z,8.62
2022-12-08T14:48:57.117Z,8.61
2022-12-08T14:51:29.450Z,8.56
2022-12-08T14:54:01.264Z,8.52
2022-12-08T14:56:36.731Z,8.48
2022-12-08T14:59:08.451Z,8.49
2022-12-08T15:01:36.974Z,8.45
2022-12-08T15:04:14.707Z,8.43
2022-12-08T15:06:49.827Z,8.41
2022-12-08T15:09:28.284Z,8.34
2022-12-08T15:12:02.801Z,8.27
2022-12-08T15:14:33.780Z,8.23
2022-12-08T15:17:01.069Z,8.20
2022-12-08T15:19:29.898Z,8.10
2022-12-08T15:21:59.635Z,8.08
2022-12-08T15:24:29.882Z,8.07
2022-12-08T15:26:57.157Z,8.03
2022-12-08T15:29:27.997Z,8.05
2022-12-08T15:31:57.244Z,8.02
2022-12-08T15:34:24.543Z,8.01
2022-12-08T15:36:53.315Z,8.01
2022-12-08T15:39:30.089Z,7.97
2022-12-08T15:41:57.154Z,7.93
2022-12-08T15:44:25.700Z,7.92
2022-12-08T15:46:53.638Z,7.87
2022-12-08T15:49:22.903Z,7.87
2022-12-08T15:51:50.461Z,7.89
2022-12-08T15:54:17.942Z,7.91
2022-12-08T15:57:17.554Z,7.89
2022-12-08T15:59:35.761Z,7.88
2022-12-08T16:02:02.832Z,7.92
2022-12-08T16:07:22.747Z,8.05
2022-12-08T16:09:50.025Z,8.11
2022-12-08T16:13:40.402Z,8.17
2022-12-08T16:18:16.804Z,8.23
2022-12-08T16:21:08.108Z,8.24
2022-12-08T16:23:46.503Z,8.24
2022-12-08T16:26:28.423Z,8.25
2022-12-08T16:29:03.053Z,8.24
2022-12-08T16:31:31.881Z,8.22
2022-12-08T16:33:58.934Z,8.23
2022-12-08T16:36:25.875Z,8.25
2022-12-08T16:38:52.960Z,8.28
2022-12-08T16:41:38.244Z,8.29
2022-12-08T16:44:06.505Z,8.30
2022-12-08T16:46:36.075Z,8.31
2022-12-08T16:49:03.523Z,8.32
2022-12-08T16:51:30.492Z,8.32
2022-12-08T16:53:58.498Z,8.28
2022-12-08T16:56:32.246Z,8.25
2022-12-08T16:59:00.806Z,8.24
2022-12-08T17:01:27.827Z,8.15
2022-12-08T17:04:29.318Z,8.09
2022-12-08T17:06:43.414Z,8.03
2022-12-08T17:09:10.497Z,7.96
2022-12-08T17:11:43.040Z,7.93
2022-12-08T17:14:10.718Z,7.95
2022-12-08T17:16:37.742Z,7.98
2022-12-08T17:19:06.227Z,8.03
2022-12-08T17:21:33.429Z,8.06
2022-12-08T17:24:00.386Z,8.11
2022-12-08T17:26:27.452Z,8.13
2022-12-08T17:29:01.862Z,8.16
2022-12-08T17:31:30.672Z,8.19
2022-12-08T17:33:58.734Z,8.16
2022-12-08T17:36:27.276Z,8.10
2022-12-08T17:38:54.557Z,8.10
2022-12-08T17:41:21.564Z,8.13
2022-12-08T17:43:48.520Z,8.15
2022-12-08T17:46:17.632Z,8.12
2022-12-08T17:48:44.685Z,8.11
2022-12-08T17:51:11.630Z,8.14
2022-12-08T17:53:40.815Z,8.11
2022-12-08T17:56:15.130Z,8.07
2022-12-08T17:58:42.301Z,8.09
2022-12-08T18:01:11.462Z,8.09
2022-12-08T18:03:38.973Z,8.11
2022-12-08T18:06:07.165Z,8.09
2022-12-08T18:08:34.781Z,8.05
2022-12-08T18:11:03.881Z,8.04
2022-12-08T18:13:31.572Z,8.04
2022-12-08T18:15:58.581Z,8.04
2022-12-08T18:18:25.711Z,7.99
2022-12-08T18:20:53.086Z,7.89
2022-12-08T18:23:20.124Z,7.76
2022-12-08T18:25:47.649Z,7.68
2022-12-08T18:28:16.024Z,7.69
2022-12-08T18:30:43.113Z,7.64
2022-12-08T18:33:10.286Z,7.57
2022-12-08T18:35:39.553Z,7.56
2022-12-08T18:38:06.600Z,7.51
2022-12-08T18:40:33.773Z,7.47
2022-12-08T18:43:00.805Z,7.45
2022-12-08T18:45:29.480Z,7.48
2022-12-08T18:47:56.634Z,7.47
2022-12-08T18:50:23.897Z,7.49
2022-12-08T18:52:51.841Z,7.51
2022-12-08T18:55:18.985Z,7.51
2022-12-08T18:57:46.329Z,7.57
2022-12-08T19:00:16.514Z,7.62
2022-12-08T19:02:45.562Z,7.66
2022-12-08T19:05:13.650Z,7.70
2022-12-08T19:07:45.114Z,7.71
2022-12-08T19:10:12.957Z,7.73
2022-12-08T19:12:40.607Z,7.74
2022-12-08T19:15:09.073Z,7.75
2022-12-08T19:17:36.292Z,7.77
2022-12-08T19:20:06.598Z,7.77
2022-12-08T19:22:33.840Z,7.79
2022-12-08T19:25:00.826Z,7.81
2022-12-08T19:27:29.072Z,7.82
2022-12-08T19:29:56.110Z,7.85
2022-12-08T19:32:23.196Z,7.83
2022-12-08T19:34:50.273Z,7.84
2022-12-08T19:37:18.694Z,7.86
2022-12-08T19:40:04.640Z,7.87
2022-12-08T19:42:50.790Z,7.87
2022-12-08T19:45:21.662Z,7.87
2022-12-08T19:47:49.005Z,7.84
2022-12-08T19:50:35.283Z,7.79
2022-12-08T19:53:05.028Z,7.68
2022-12-08T19:55:32.278Z,7.56
2022-12-08T19:58:01.664Z,7.55
2022-12-08T20:00:30.014Z,7.53
2022-12-08T20:02:57.525Z,7.54
2022-12-08T20:05:24.811Z,7.49
2022-12-08T20:07:52.372Z,7.47
2022-12-08T20:10:28.256Z,7.47
2022-12-08T20:13:16.235Z,7.41
2022-12-08T20:15:43.881Z,7.36
2022-12-08T20:18:11.437Z,7.33
2022-12-08T20:20:39.075Z,7.35
2022-12-08T20:23:06.247Z,7.40
2022-12-08T20:25:34.905Z,7.36
2022-12-08T20:28:01.845Z,7.38
2022-12-08T20:30:28.882Z,7.36
2022-12-08T20:32:55.888Z,7.34
2022-12-08T20:35:23.862Z,7.33
2022-12-08T20:37:50.818Z,7.36
2022-12-08T20:40:17.982Z,7.40
2022-12-08T20:42:46.717Z,7.45
2022-12-08T20:45:13.674Z,7.47
2022-12-08T20:47:40.714Z,7.46
2022-12-08T20:50:09.039Z,7.46
2022-12-08T20:52:37.963Z,7.47
2022-12-08T20:55:06.716Z,7.45
2022-12-08T20:57:34.141Z,7.48
2022-12-08T21:00:02.862Z,7.48
2022-12-08T21:02:30.281Z,7.47
2022-12-08T21:04:57.548Z,7.49
2022-12-08T21:07:24.480Z,7.48
2022-12-08T21:09:52.626Z,7.49
2022-12-08T21:12:19.618Z,7.51
2022-12-08T21:14:46.648Z,7.53
2022-12-08T21:17:15.197Z,7.53
2022-12-08T21:19:42.516Z,7.54
2022-12-08T21:22:09.563Z,7.53
2022-12-08T21:24:37.852Z,7.51
2022-12-08T21:27:04.895Z,7.52
2022-12-08T21:29:31.930Z,7.50
2022-12-08T21:32:00.275Z,7.53
2022-12-08T21:34:34.185Z,7.51
2022-12-08T21:37:02.114Z,7.51
2022-12-08T21:39:29.255Z,7.50
2022-12-08T21:42:15.227Z,7.47
2022-12-08T21:44:42.655Z,7.42
2022-12-08T21:47:09.852Z,7.41
2022-12-08T21:49:38.488Z,7.40
2022-12-08T21:52:05.663Z,7.39
2022-12-08T21:54:32.804Z,7.37
2022-12-08T21:56:59.996Z,7.35
2022-12-08T21:59:27.194Z,7.36
2022-12-08T22:01:54.404Z,7.38
2022-12-08T22:04:22.406Z,7.37
2022-12-08T22:06:51.391Z,7.36
2022-12-08T22:09:18.536Z,7.29
2022-12-08T22:11:45.927Z,7.17
2022-12-08T22:14:15.176Z,7.17
2022-12-08T22:16:43.067Z,7.08
2022-12-08T22:19:10.691Z,6.99
2022-12-08T22:21:38.362Z,6.93
2022-12-08T22:24:07.549Z,6.90
2022-12-08T22:26:35.648Z,6.84
2022-12-08T22:29:02.597Z,6.87
2022-12-08T22:31:29.795Z,6.89
2022-12-08T22:33:59.162Z,6.86
2022-12-08T22:36:27.134Z,6.77
2022-12-08T22:38:54.972Z,6.79
2022-12-08T22:41:23.491Z,6.79
2022-12-08T22:43:51.292Z,6.72
2022-12-08T22:46:21.137Z,6.61
2022-12-08T22:48:49.100Z,6.53
2022-12-08T22:51:16.170Z,6.44
2022-12-08T22:53:43.877Z,6.43
2022-12-08T22:56:12.703Z,6.35
2022-12-08T22:58:42.268Z,6.29
2022-12-08T23:01:19.789Z,6.31
2022-12-08T23:03:46.943Z,6.27
2022-12-08T23:06:14.402Z,6.23
2022-12-08T23:08:41.473Z,6.24
2022-12-08T23:11:08.489Z,6.23
2022-12-08T23:13:36.672Z,6.29
2022-12-08T23:16:05.673Z,6.31
2022-12-08T23:18:32.871Z,6.34
2022-12-08T23:21:03.753Z,6.35
2022-12-08T23:23:31.012Z,6.36
2022-12-08T23:25:58.202Z,6.35
2022-12-08T23:28:25.342Z,6.36
2022-12-08T23:30:52.496Z,6.38
2022-12-08T23:33:21.023Z,6.39
2022-12-08T23:35:56.617Z,6.36
2022-12-08T23:38:24.400Z,6.32
2022-12-08T23:40:51.448Z,6.30
2022-12-08T23:43:18.406Z,6.29
2022-12-08T23:45:45.512Z,6.30
2022-12-08T23:48:12.741Z,6.32
2022-12-08T23:50:41.068Z,6.29
2022-12-08T23:53:08.087Z,6.32
2022-12-08T23:55:35.252Z,6.26
2022-12-08T23:58:02.568Z,6.22
